sensor_id;sensor_type;location;lat;lon;timestamp;P1;durP1;ratioP1;P2;durP2;ratioP2
64857;SDS011;51335;51.148;6.950;2023-04-07T00:00:23;18.55;;;12.73;;
64857;SDS011;51335;51.148;6.950;2023-04-07T00:00:54;17.70;;;12.50;;
64857;SDS011;51335;51.148;6.950;2023-04-07T00:01:24;17.95;;;13.07;;
64857;SDS011;51335;51.148;6.950;2023-04-07T00:01:54;16.63;;;12.60;;
64857;SDS011;51335;51.148;6.950;2023-04-07T00:02:24;16.80;;;12.20;;
64857;SDS011;51335;51.148;6.950;2023-04-07T00:02:55;18.40;;;12.50;;
64857;SDS011;51335;51.148;6.950;2023-04-07T00:03:25;17.52;;;12.70;;
64857;SDS011;51335;51.148;6.950;2023-04-07T00:03:55;19.92;;;12.73;;
64857;SDS011;51335;51.148;6.950;2023-04-07T00:04:26;18.35;;;12.57;;
64857;SDS011;51335;51.148;6.950;2023-04-07T00:04:56;19.58;;;12.82;;
64857;SDS011;51335;51.148;6.950;2023-04-07T00:05:26;16.95;;;12.18;;
64857;SDS011;51335;51.148;6.950;2023-04-07T00:05:56;17.02;;;12.38;;
64857;SDS011;51335;51.148;6.950;2023-04-07T00:06:27;18.05;;;12.15;;
64857;SDS011;51335;51.148;6.950;2023-04-07T00:06:57;19.90;;;13.73;;
64857;SDS011;51335;51.148;6.950;2023-04-07T00:07:27;16.13;;;12.20;;
64857;SDS011;51335;51.148;6.950;2023-04-07T00:07:57;20.15;;;12.95;;
64857;SDS011;51335;51.148;6.950;2023-04-07T00:08:28;15.80;;;11.85;;
64857;SDS011;51335;51.148;6.950;2023-04-07T00:08:58;17.70;;;12.48;;
64857;SDS011;51335;51.148;6.950;2023-04-07T00:09:28;18.48;;;12.23;;
64857;SDS011;51335;51.148;6.950;2023-04-07T00:09:59;17.55;;;12.75;;
64857;SDS011;51335;51.148;6.950;2023-04-07T00:10:29;19.05;;;12.15;;
64857;SDS011;51335;51.148;6.950;2023-04-07T00:10:59;18.75;;;12.88;;
64857;SDS011;51335;51.148;6.950;2023-04-07T00:11:29;17.77;;;12.55;;
64857;SDS011;51335;51.148;6.950;2023-04-07T00:12:00;17.02;;;12.68;;
64857;SDS011;51335;51.148;6.950;2023-04-07T00:12:30;17.52;;;12.20;;
64857;SDS011;51335;51.148;6.950;2023-04-07T00:13:00;18.08;;;12.48;;
64857;SDS011;51335;51.148;6.950;2023-04-07T00:13:30;16.10;;;12.23;;
64857;SDS011;51335;51.148;6.950;2023-04-07T00:14:01;18.63;;;12.60;;
64857;SDS011;51335;51.148;6.950;2023-04-07T00:14:31;18.23;;;12.43;;
64857;SDS011;51335;51.148;6.950;2023-04-07T00:15:02;17.23;;;12.73;;
64857;SDS011;51335;51.148;6.950;2023-04-07T00:15:32;18.42;;;12.20;;
64857;SDS011;51335;51.148;6.950;2023-04-07T00:16:02;20.08;;;12.38;;
64857;SDS011;51335;51.148;6.950;2023-04-07T00:16:32;18.70;;;12.65;;
64857;SDS011;51335;51.148;6.950;2023-04-07T00:17:03;18.83;;;13.00;;
64857;SDS011;51335;51.148;6.950;2023-04-07T00:17:33;17.45;;;12.27;;
64857;SDS011;51335;51.148;6.950;2023-04-07T00:18:03;18.30;;;11.77;;
64857;SDS011;51335;51.148;6.950;2023-04-07T00:18:34;17.73;;;12.60;;
64857;SDS011;51335;51.148;6.950;2023-04-07T00:19:04;18.30;;;12.43;;
64857;SDS011;51335;51.148;6.950;2023-04-07T00:19:34;18.52;;;12.73;;
64857;SDS011;51335;51.148;6.950;2023-04-07T00:20:05;17.55;;;12.80;;
64857;SDS011;51335;51.148;6.950;2023-04-07T00:20:35;17.92;;;12.70;;
64857;SDS011;51335;51.148;6.950;2023-04-07T00:21:05;19.70;;;12.48;;
64857;SDS011;51335;51.148;6.950;2023-04-07T00:21:36;16.10;;;12.57;;
64857;SDS011;51335;51.148;6.950;2023-04-07T00:22:06;19.90;;;12.35;;
64857;SDS011;51335;51.148;6.950;2023-04-07T00:22:36;17.20;;;12.40;;
64857;SDS011;51335;51.148;6.950;2023-04-07T00:23:07;17.33;;;13.02;;
64857;SDS011;51335;51.148;6.950;2023-04-07T00:23:37;18.70;;;12.73;;
64857;SDS011;51335;51.148;6.950;2023-04-07T00:24:07;18.88;;;12.80;;
64857;SDS011;51335;51.148;6.950;2023-04-07T00:24:37;19.60;;;12.70;;
64857;SDS011;51335;51.148;6.950;2023-04-07T00:25:08;18.58;;;12.90;;
64857;SDS011;51335;51.148;6.950;2023-04-07T00:25:38;17.77;;;12.25;;
64857;SDS011;51335;51.148;6.950;2023-04-07T00:26:08;18.08;;;11.77;;
64857;SDS011;51335;51.148;6.950;2023-04-07T00:26:39;18.00;;;12.32;;
64857;SDS011;51335;51.148;6.950;2023-04-07T00:27:09;17.25;;;12.32;;
64857;SDS011;51335;51.148;6.950;2023-04-07T00:27:39;18.98;;;12.73;;
64857;SDS011;51335;51.148;6.950;2023-04-07T00:28:10;17.17;;;12.95;;
64857;SDS011;51335;51.148;6.950;2023-04-07T00:28:40;17.77;;;13.07;;
64857;SDS011;51335;51.148;6.950;2023-04-07T00:29:10;17.80;;;12.02;;
64857;SDS011;51335;51.148;6.950;2023-04-07T00:29:40;20.17;;;12.82;;
64857;SDS011;51335;51.148;6.950;2023-04-07T00:30:11;18.17;;;12.77;;
64857;SDS011;51335;51.148;6.950;2023-04-07T00:30:41;18.83;;;13.43;;
64857;SDS011;51335;51.148;6.950;2023-04-07T00:31:11;17.40;;;12.68;;
64857;SDS011;51335;51.148;6.950;2023-04-07T00:31:42;19.05;;;12.52;;
64857;SDS011;51335;51.148;6.950;2023-04-07T00:32:12;20.67;;;13.20;;
64857;SDS011;51335;51.148;6.950;2023-04-07T00:32:42;17.80;;;11.98;;
64857;SDS011;51335;51.148;6.950;2023-04-07T00:33:12;17.83;;;13.02;;
64857;SDS011;51335;51.148;6.950;2023-04-07T00:33:43;15.65;;;11.93;;
64857;SDS011;51335;51.148;6.950;2023-04-07T00:34:13;16.92;;;12.93;;
64857;SDS011;51335;51.148;6.950;2023-04-07T00:34:43;20.10;;;13.45;;
64857;SDS011;51335;51.148;6.950;2023-04-07T00:35:13;19.92;;;13.40;;
64857;SDS011;51335;51.148;6.950;2023-04-07T00:35:44;20.42;;;13.40;;
64857;SDS011;51335;51.148;6.950;2023-04-07T00:36:14;18.08;;;13.35;;
64857;SDS011;51335;51.148;6.950;2023-04-07T00:36:44;20.95;;;13.77;;
64857;SDS011;51335;51.148;6.950;2023-04-07T00:37:15;19.73;;;14.32;;
64857;SDS011;51335;51.148;6.950;2023-04-07T00:37:45;19.52;;;13.10;;
64857;SDS011;51335;51.148;6.950;2023-04-07T00:38:15;20.63;;;13.80;;
64857;SDS011;51335;51.148;6.950;2023-04-07T00:38:45;19.05;;;13.80;;
64857;SDS011;51335;51.148;6.950;2023-04-07T00:39:19;19.73;;;13.57;;
64857;SDS011;51335;51.148;6.950;2023-04-07T00:39:50;20.67;;;13.30;;
64857;SDS011;51335;51.148;6.950;2023-04-07T00:40:20;20.20;;;13.18;;
64857;SDS011;51335;51.148;6.950;2023-04-07T00:40:56;19.92;;;13.00;;
64857;SDS011;51335;51.148;6.950;2023-04-07T00:41:27;17.23;;;12.48;;
64857;SDS011;51335;51.148;6.950;2023-04-07T00:41:57;18.42;;;12.80;;
64857;SDS011;51335;51.148;6.950;2023-04-07T00:42:27;17.42;;;12.60;;
64857;SDS011;51335;51.148;6.950;2023-04-07T00:42:57;16.42;;;11.90;;
64857;SDS011;51335;51.148;6.950;2023-04-07T00:43:28;17.58;;;12.23;;
64857;SDS011;51335;51.148;6.950;2023-04-07T00:43:58;19.85;;;12.68;;
64857;SDS011;51335;51.148;6.950;2023-04-07T00:44:29;17.13;;;12.48;;
64857;SDS011;51335;51.148;6.950;2023-04-07T00:44:59;16.83;;;12.30;;
64857;SDS011;51335;51.148;6.950;2023-04-07T00:45:30;17.48;;;12.90;;
64857;SDS011;51335;51.148;6.950;2023-04-07T00:46:00;18.75;;;13.13;;
64857;SDS011;51335;51.148;6.950;2023-04-07T00:46:30;20.33;;;12.80;;
64857;SDS011;51335;51.148;6.950;2023-04-07T00:47:01;18.65;;;13.35;;
64857;SDS011;51335;51.148;6.950;2023-04-07T00:47:31;19.65;;;13.48;;
64857;SDS011;51335;51.148;6.950;2023-04-07T00:48:01;17.88;;;12.13;;
64857;SDS011;51335;51.148;6.950;2023-04-07T00:48:32;17.98;;;12.48;;
64857;SDS011;51335;51.148;6.950;2023-04-07T00:49:02;19.70;;;12.48;;
64857;SDS011;51335;51.148;6.950;2023-04-07T00:49:33;19.13;;;13.52;;
64857;SDS011;51335;51.148;6.950;2023-04-07T00:50:03;23.08;;;12.98;;
64857;SDS011;51335;51.148;6.950;2023-04-07T00:50:34;18.70;;;13.18;;
64857;SDS011;51335;51.148;6.950;2023-04-07T00:51:04;18.85;;;13.07;;
64857;SDS011;51335;51.148;6.950;2023-04-07T00:51:35;22.42;;;13.40;;
64857;SDS011;51335;51.148;6.950;2023-04-07T00:52:06;19.20;;;13.40;;
64857;SDS011;51335;51.148;6.950;2023-04-07T00:52:37;19.92;;;13.43;;
64857;SDS011;51335;51.148;6.950;2023-04-07T00:53:08;19.98;;;13.48;;
64857;SDS011;51335;51.148;6.950;2023-04-07T00:53:39;20.92;;;14.50;;
64857;SDS011;51335;51.148;6.950;2023-04-07T00:54:09;22.17;;;15.13;;
64857;SDS011;51335;51.148;6.950;2023-04-07T00:54:41;23.42;;;14.75;;
64857;SDS011;51335;51.148;6.950;2023-04-07T00:55:11;22.38;;;14.52;;
64857;SDS011;51335;51.148;6.950;2023-04-07T00:55:41;21.42;;;15.05;;
64857;SDS011;51335;51.148;6.950;2023-04-07T00:56:12;21.45;;;14.77;;
64857;SDS011;51335;51.148;6.950;2023-04-07T00:56:42;22.85;;;13.88;;
64857;SDS011;51335;51.148;6.950;2023-04-07T00:57:12;22.35;;;14.38;;
64857;SDS011;51335;51.148;6.950;2023-04-07T00:57:43;22.63;;;14.48;;
64857;SDS011;51335;51.148;6.950;2023-04-07T00:58:13;21.80;;;14.85;;
64857;SDS011;51335;51.148;6.950;2023-04-07T00:58:44;18.70;;;13.38;;
64857;SDS011;51335;51.148;6.950;2023-04-07T00:59:14;21.55;;;14.75;;
64857;SDS011;51335;51.148;6.950;2023-04-07T00:59:44;22.73;;;14.18;;
64857;SDS011;51335;51.148;6.950;2023-04-07T01:00:15;20.30;;;14.25;;
64857;SDS011;51335;51.148;6.950;2023-04-07T01:00:50;20.92;;;14.05;;
64857;SDS011;51335;51.148;6.950;2023-04-07T01:01:31;21.25;;;13.82;;
64857;SDS011;51335;51.148;6.950;2023-04-07T01:02:10;19.88;;;13.90;;
64857;SDS011;51335;51.148;6.950;2023-04-07T01:02:58;19.55;;;13.77;;
64857;SDS011;51335;51.148;6.950;2023-04-07T01:03:35;20.83;;;13.57;;
64857;SDS011;51335;51.148;6.950;2023-04-07T01:04:32;18.45;;;12.48;;
64857;SDS011;51335;51.148;6.950;2023-04-07T01:05:45;18.27;;;13.23;;
64857;SDS011;51335;51.148;6.950;2023-04-07T01:06:23;18.83;;;13.77;;
64857;SDS011;51335;51.148;6.950;2023-04-07T01:06:56;20.65;;;13.45;;
64857;SDS011;51335;51.148;6.950;2023-04-07T01:07:43;20.05;;;13.63;;
64857;SDS011;51335;51.148;6.950;2023-04-07T01:08:23;17.80;;;12.95;;
64857;SDS011;51335;51.148;6.950;2023-04-07T01:08:57;19.23;;;13.18;;
64857;SDS011;51335;51.148;6.950;2023-04-07T01:09:36;19.85;;;13.23;;
64857;SDS011;51335;51.148;6.950;2023-04-07T01:10:11;19.50;;;13.52;;
64857;SDS011;51335;51.148;6.950;2023-04-07T01:10:53;20.08;;;13.52;;
64857;SDS011;51335;51.148;6.950;2023-04-07T01:11:31;18.25;;;13.25;;
64857;SDS011;51335;51.148;6.950;2023-04-07T01:13:04;19.15;;;12.80;;
64857;SDS011;51335;51.148;6.950;2023-04-07T01:13:42;18.15;;;13.02;;
64857;SDS011;51335;51.148;6.950;2023-04-07T01:14:13;21.52;;;14.32;;
64857;SDS011;51335;51.148;6.950;2023-04-07T01:14:49;19.33;;;13.60;;
64857;SDS011;51335;51.148;6.950;2023-04-07T01:15:21;19.20;;;13.70;;
64857;SDS011;51335;51.148;6.950;2023-04-07T01:15:56;23.10;;;14.88;;
64857;SDS011;51335;51.148;6.950;2023-04-07T01:16:30;21.10;;;14.27;;
64857;SDS011;51335;51.148;6.950;2023-04-07T01:17:03;21.65;;;14.48;;
64857;SDS011;51335;51.148;6.950;2023-04-07T01:17:36;18.58;;;14.13;;
64857;SDS011;51335;51.148;6.950;2023-04-07T01:18:16;18.67;;;13.75;;
64857;SDS011;51335;51.148;6.950;2023-04-07T01:18:51;21.83;;;13.88;;
64857;SDS011;51335;51.148;6.950;2023-04-07T01:19:37;21.17;;;14.07;;
64857;SDS011;51335;51.148;6.950;2023-04-07T01:20:13;19.58;;;13.57;;
64857;SDS011;51335;51.148;6.950;2023-04-07T01:20:47;20.38;;;13.95;;
64857;SDS011;51335;51.148;6.950;2023-04-07T01:21:20;20.02;;;13.82;;
64857;SDS011;51335;51.148;6.950;2023-04-07T01:21:54;22.55;;;14.63;;
64857;SDS011;51335;51.148;6.950;2023-04-07T01:22:45;19.10;;;12.93;;
64857;SDS011;51335;51.148;6.950;2023-04-07T01:23:26;20.20;;;13.07;;
64857;SDS011;51335;51.148;6.950;2023-04-07T01:25:17;19.83;;;12.82;;
64857;SDS011;51335;51.148;6.950;2023-04-07T01:26:06;19.00;;;12.48;;
64857;SDS011;51335;51.148;6.950;2023-04-07T01:26:46;18.92;;;12.48;;
64857;SDS011;51335;51.148;6.950;2023-04-07T01:27:30;18.13;;;12.75;;
64857;SDS011;51335;51.148;6.950;2023-04-07T01:28:14;18.13;;;12.60;;
64857;SDS011;51335;51.148;6.950;2023-04-07T01:29:09;19.60;;;12.60;;
64857;SDS011;51335;51.148;6.950;2023-04-07T01:29:57;18.38;;;12.45;;
64857;SDS011;51335;51.148;6.950;2023-04-07T01:30:32;17.17;;;12.63;;
64857;SDS011;51335;51.148;6.950;2023-04-07T01:31:05;17.38;;;13.10;;
64857;SDS011;51335;51.148;6.950;2023-04-07T01:31:39;18.30;;;13.77;;
64857;SDS011;51335;51.148;6.950;2023-04-07T01:32:10;20.55;;;14.07;;
64857;SDS011;51335;51.148;6.950;2023-04-07T01:32:41;20.27;;;14.10;;
64857;SDS011;51335;51.148;6.950;2023-04-07T01:33:14;20.98;;;14.38;;
64857;SDS011;51335;51.148;6.950;2023-04-07T01:33:45;19.92;;;14.13;;
64857;SDS011;51335;51.148;6.950;2023-04-07T01:34:17;20.92;;;14.50;;
64857;SDS011;51335;51.148;6.950;2023-04-07T01:34:48;20.58;;;14.38;;
64857;SDS011;51335;51.148;6.950;2023-04-07T01:35:20;21.23;;;14.52;;
64857;SDS011;51335;51.148;6.950;2023-04-07T01:35:52;19.98;;;14.07;;
64857;SDS011;51335;51.148;6.950;2023-04-07T01:36:24;20.40;;;15.05;;
64857;SDS011;51335;51.148;6.950;2023-04-07T01:36:56;19.75;;;14.25;;
64857;SDS011;51335;51.148;6.950;2023-04-07T01:37:28;23.52;;;15.23;;
64857;SDS011;51335;51.148;6.950;2023-04-07T01:37:59;20.85;;;15.00;;
64857;SDS011;51335;51.148;6.950;2023-04-07T01:38:30;21.55;;;15.80;;
64857;SDS011;51335;51.148;6.950;2023-04-07T01:39:02;21.77;;;14.85;;
64857;SDS011;51335;51.148;6.950;2023-04-07T01:39:33;20.27;;;14.98;;
64857;SDS011;51335;51.148;6.950;2023-04-07T01:40:05;22.20;;;15.50;;
64857;SDS011;51335;51.148;6.950;2023-04-07T01:40:37;20.48;;;14.88;;
64857;SDS011;51335;51.148;6.950;2023-04-07T01:41:08;22.38;;;16.45;;
64857;SDS011;51335;51.148;6.950;2023-04-07T01:41:39;20.80;;;14.77;;
64857;SDS011;51335;51.148;6.950;2023-04-07T01:42:10;21.10;;;14.48;;
64857;SDS011;51335;51.148;6.950;2023-04-07T01:42:41;21.60;;;15.23;;
64857;SDS011;51335;51.148;6.950;2023-04-07T01:43:13;20.92;;;15.18;;
64857;SDS011;51335;51.148;6.950;2023-04-07T01:43:45;22.45;;;15.27;;
64857;SDS011;51335;51.148;6.950;2023-04-07T01:44:17;19.48;;;13.85;;
64857;SDS011;51335;51.148;6.950;2023-04-07T01:44:48;21.67;;;15.25;;
64857;SDS011;51335;51.148;6.950;2023-04-07T01:45:19;19.20;;;14.15;;
64857;SDS011;51335;51.148;6.950;2023-04-07T01:45:51;22.17;;;15.70;;
64857;SDS011;51335;51.148;6.950;2023-04-07T01:46:22;21.17;;;15.35;;
64857;SDS011;51335;51.148;6.950;2023-04-07T01:46:52;22.42;;;14.95;;
64857;SDS011;51335;51.148;6.950;2023-04-07T01:47:24;24.08;;;15.25;;
64857;SDS011;51335;51.148;6.950;2023-04-07T01:47:55;21.67;;;15.35;;
64857;SDS011;51335;51.148;6.950;2023-04-07T01:48:26;22.45;;;15.82;;
64857;SDS011;51335;51.148;6.950;2023-04-07T01:48:56;22.45;;;15.15;;
64857;SDS011;51335;51.148;6.950;2023-04-07T01:49:28;24.13;;;15.55;;
64857;SDS011;51335;51.148;6.950;2023-04-07T01:50:00;23.00;;;16.17;;
64857;SDS011;51335;51.148;6.950;2023-04-07T01:50:32;20.90;;;14.98;;
64857;SDS011;51335;51.148;6.950;2023-04-07T01:51:03;21.38;;;15.52;;
64857;SDS011;51335;51.148;6.950;2023-04-07T01:51:34;24.02;;;16.60;;
64857;SDS011;51335;51.148;6.950;2023-04-07T01:52:05;23.02;;;16.35;;
64857;SDS011;51335;51.148;6.950;2023-04-07T01:52:36;25.00;;;17.23;;
64857;SDS011;51335;51.148;6.950;2023-04-07T01:53:08;26.70;;;16.85;;
64857;SDS011;51335;51.148;6.950;2023-04-07T01:53:39;24.33;;;16.42;;
64857;SDS011;51335;51.148;6.950;2023-04-07T01:54:10;25.52;;;17.40;;
64857;SDS011;51335;51.148;6.950;2023-04-07T01:54:40;23.75;;;16.85;;
64857;SDS011;51335;51.148;6.950;2023-04-07T01:55:11;23.63;;;16.92;;
64857;SDS011;51335;51.148;6.950;2023-04-07T01:55:41;24.55;;;17.27;;
64857;SDS011;51335;51.148;6.950;2023-04-07T01:56:12;25.33;;;17.17;;
64857;SDS011;51335;51.148;6.950;2023-04-07T01:56:43;25.83;;;16.42;;
64857;SDS011;51335;51.148;6.950;2023-04-07T01:57:14;23.15;;;16.52;;
64857;SDS011;51335;51.148;6.950;2023-04-07T01:57:44;21.75;;;16.20;;
64857;SDS011;51335;51.148;6.950;2023-04-07T01:58:14;24.40;;;16.52;;
64857;SDS011;51335;51.148;6.950;2023-04-07T01:58:45;23.00;;;16.52;;
64857;SDS011;51335;51.148;6.950;2023-04-07T01:59:15;26.90;;;17.85;;
64857;SDS011;51335;51.148;6.950;2023-04-07T01:59:46;26.13;;;18.00;;
64857;SDS011;51335;51.148;6.950;2023-04-07T02:00:16;26.30;;;18.40;;
64857;SDS011;51335;51.148;6.950;2023-04-07T02:00:47;27.30;;;18.63;;
64857;SDS011;51335;51.148;6.950;2023-04-07T02:01:18;26.17;;;18.08;;
64857;SDS011;51335;51.148;6.950;2023-04-07T02:01:48;28.35;;;18.60;;
64857;SDS011;51335;51.148;6.950;2023-04-07T02:02:18;25.30;;;18.45;;
64857;SDS011;51335;51.148;6.950;2023-04-07T02:02:50;25.85;;;19.15;;
64857;SDS011;51335;51.148;6.950;2023-04-07T02:03:28;26.75;;;19.20;;
64857;SDS011;51335;51.148;6.950;2023-04-07T02:04:15;27.67;;;18.20;;
64857;SDS011;51335;51.148;6.950;2023-04-07T02:05:27;27.05;;;18.05;;
64857;SDS011;51335;51.148;6.950;2023-04-07T02:06:01;25.52;;;18.23;;
64857;SDS011;51335;51.148;6.950;2023-04-07T02:06:37;24.80;;;17.67;;
64857;SDS011;51335;51.148;6.950;2023-04-07T02:07:20;24.75;;;17.95;;
64857;SDS011;51335;51.148;6.950;2023-04-07T02:07:59;26.52;;;17.67;;
64857;SDS011;51335;51.148;6.950;2023-04-07T02:08:32;25.30;;;16.98;;
64857;SDS011;51335;51.148;6.950;2023-04-07T02:09:06;26.05;;;17.70;;
64857;SDS011;51335;51.148;6.950;2023-04-07T02:09:39;24.27;;;16.92;;
64857;SDS011;51335;51.148;6.950;2023-04-07T02:10:12;23.63;;;17.70;;
64857;SDS011;51335;51.148;6.950;2023-04-07T02:10:45;24.40;;;16.85;;
64857;SDS011;51335;51.148;6.950;2023-04-07T02:11:17;25.20;;;16.58;;
64857;SDS011;51335;51.148;6.950;2023-04-07T02:11:50;23.90;;;16.65;;
64857;SDS011;51335;51.148;6.950;2023-04-07T02:12:23;26.27;;;16.88;;
64857;SDS011;51335;51.148;6.950;2023-04-07T02:12:55;27.38;;;16.75;;
64857;SDS011;51335;51.148;6.950;2023-04-07T02:13:27;24.35;;;17.13;;
64857;SDS011;51335;51.148;6.950;2023-04-07T02:13:59;24.40;;;17.00;;
64857;SDS011;51335;51.148;6.950;2023-04-07T02:14:31;27.88;;;17.23;;
64857;SDS011;51335;51.148;6.950;2023-04-07T02:15:02;25.63;;;18.25;;
64857;SDS011;51335;51.148;6.950;2023-04-07T02:15:33;23.90;;;17.40;;
64857;SDS011;51335;51.148;6.950;2023-04-07T02:16:05;24.55;;;16.73;;
64857;SDS011;51335;51.148;6.950;2023-04-07T02:16:37;26.65;;;17.00;;
64857;SDS011;51335;51.148;6.950;2023-04-07T02:17:10;25.90;;;17.40;;
64857;SDS011;51335;51.148;6.950;2023-04-07T02:17:43;22.83;;;16.77;;
64857;SDS011;51335;51.148;6.950;2023-04-07T02:18:16;26.42;;;16.92;;
64857;SDS011;51335;51.148;6.950;2023-04-07T02:18:48;24.58;;;17.55;;
64857;SDS011;51335;51.148;6.950;2023-04-07T02:19:19;24.10;;;17.10;;
64857;SDS011;51335;51.148;6.950;2023-04-07T02:19:50;27.15;;;17.48;;
64857;SDS011;51335;51.148;6.950;2023-04-07T02:20:22;24.95;;;17.15;;
64857;SDS011;51335;51.148;6.950;2023-04-07T02:20:53;25.35;;;17.70;;
64857;SDS011;51335;51.148;6.950;2023-04-07T02:21:26;24.67;;;17.48;;
64857;SDS011;51335;51.148;6.950;2023-04-07T02:21:57;26.55;;;17.55;;
64857;SDS011;51335;51.148;6.950;2023-04-07T02:22:28;27.45;;;17.48;;
64857;SDS011;51335;51.148;6.950;2023-04-07T02:22:59;27.88;;;18.40;;
64857;SDS011;51335;51.148;6.950;2023-04-07T02:23:29;24.45;;;17.17;;
64857;SDS011;51335;51.148;6.950;2023-04-07T02:24:01;25.85;;;17.70;;
64857;SDS011;51335;51.148;6.950;2023-04-07T02:24:31;25.40;;;17.33;;
64857;SDS011;51335;51.148;6.950;2023-04-07T02:25:01;25.73;;;17.27;;
64857;SDS011;51335;51.148;6.950;2023-04-07T02:25:32;26.48;;;17.35;;
64857;SDS011;51335;51.148;6.950;2023-04-07T02:26:02;27.60;;;16.88;;
64857;SDS011;51335;51.148;6.950;2023-04-07T02:26:33;23.20;;;16.75;;
64857;SDS011;51335;51.148;6.950;2023-04-07T02:27:04;26.42;;;17.95;;
64857;SDS011;51335;51.148;6.950;2023-04-07T02:27:34;25.77;;;18.00;;
64857;SDS011;51335;51.148;6.950;2023-04-07T02:28:05;23.35;;;17.27;;
64857;SDS011;51335;51.148;6.950;2023-04-07T02:28:36;23.73;;;17.25;;
64857;SDS011;51335;51.148;6.950;2023-04-07T02:29:06;24.05;;;17.20;;
64857;SDS011;51335;51.148;6.950;2023-04-07T02:29:37;25.58;;;16.63;;
64857;SDS011;51335;51.148;6.950;2023-04-07T02:30:07;25.95;;;17.15;;
64857;SDS011;51335;51.148;6.950;2023-04-07T02:30:38;23.90;;;16.90;;
64857;SDS011;51335;51.148;6.950;2023-04-07T02:31:08;26.20;;;18.23;;
64857;SDS011;51335;51.148;6.950;2023-04-07T02:31:38;27.77;;;18.42;;
64857;SDS011;51335;51.148;6.950;2023-04-07T02:32:09;27.65;;;18.17;;
64857;SDS011;51335;51.148;6.950;2023-04-07T02:32:39;25.00;;;17.63;;
64857;SDS011;51335;51.148;6.950;2023-04-07T02:33:09;26.48;;;18.60;;
64857;SDS011;51335;51.148;6.950;2023-04-07T02:33:40;24.30;;;17.58;;
64857;SDS011;51335;51.148;6.950;2023-04-07T02:34:10;30.63;;;18.70;;
64857;SDS011;51335;51.148;6.950;2023-04-07T02:34:40;26.33;;;18.38;;
64857;SDS011;51335;51.148;6.950;2023-04-07T02:35:10;25.23;;;17.63;;
64857;SDS011;51335;51.148;6.950;2023-04-07T02:35:41;27.05;;;18.45;;
64857;SDS011;51335;51.148;6.950;2023-04-07T02:36:11;25.02;;;17.73;;
64857;SDS011;51335;51.148;6.950;2023-04-07T02:36:41;26.38;;;17.92;;
64857;SDS011;51335;51.148;6.950;2023-04-07T02:37:11;26.60;;;18.17;;
64857;SDS011;51335;51.148;6.950;2023-04-07T02:37:42;25.13;;;18.00;;
64857;SDS011;51335;51.148;6.950;2023-04-07T02:38:13;27.50;;;17.95;;
64857;SDS011;51335;51.148;6.950;2023-04-07T02:38:43;28.02;;;18.25;;
64857;SDS011;51335;51.148;6.950;2023-04-07T02:39:13;28.55;;;18.05;;
64857;SDS011;51335;51.148;6.950;2023-04-07T02:39:44;26.13;;;18.08;;
64857;SDS011;51335;51.148;6.950;2023-04-07T02:40:14;24.40;;;17.55;;
64857;SDS011;51335;51.148;6.950;2023-04-07T02:40:44;27.30;;;18.08;;
64857;SDS011;51335;51.148;6.950;2023-04-07T02:41:14;27.00;;;18.50;;
64857;SDS011;51335;51.148;6.950;2023-04-07T02:41:45;27.90;;;17.48;;
64857;SDS011;51335;51.148;6.950;2023-04-07T02:42:15;28.35;;;17.83;;
64857;SDS011;51335;51.148;6.950;2023-04-07T02:42:45;29.10;;;18.02;;
64857;SDS011;51335;51.148;6.950;2023-04-07T02:43:16;27.85;;;18.23;;
64857;SDS011;51335;51.148;6.950;2023-04-07T02:43:46;24.50;;;17.55;;
64857;SDS011;51335;51.148;6.950;2023-04-07T02:44:16;26.73;;;17.60;;
64857;SDS011;51335;51.148;6.950;2023-04-07T02:44:46;26.15;;;17.48;;
64857;SDS011;51335;51.148;6.950;2023-04-07T02:45:17;30.05;;;19.35;;
64857;SDS011;51335;51.148;6.950;2023-04-07T02:45:47;26.92;;;18.80;;
64857;SDS011;51335;51.148;6.950;2023-04-07T02:46:17;27.83;;;18.42;;
64857;SDS011;51335;51.148;6.950;2023-04-07T02:46:47;28.58;;;18.70;;
64857;SDS011;51335;51.148;6.950;2023-04-07T02:47:18;26.65;;;17.85;;
64857;SDS011;51335;51.148;6.950;2023-04-07T02:47:48;29.10;;;19.00;;
64857;SDS011;51335;51.148;6.950;2023-04-07T02:48:18;29.85;;;18.80;;
64857;SDS011;51335;51.148;6.950;2023-04-07T02:48:48;26.98;;;17.88;;
64857;SDS011;51335;51.148;6.950;2023-04-07T02:49:19;26.15;;;18.20;;
64857;SDS011;51335;51.148;6.950;2023-04-07T02:49:49;27.73;;;18.10;;
64857;SDS011;51335;51.148;6.950;2023-04-07T02:50:19;27.23;;;18.75;;
64857;SDS011;51335;51.148;6.950;2023-04-07T02:50:49;27.33;;;19.05;;
64857;SDS011;51335;51.148;6.950;2023-04-07T02:51:20;26.08;;;17.88;;
64857;SDS011;51335;51.148;6.950;2023-04-07T02:51:50;30.73;;;19.70;;
64857;SDS011;51335;51.148;6.950;2023-04-07T02:52:20;29.13;;;18.83;;
64857;SDS011;51335;51.148;6.950;2023-04-07T02:52:50;29.05;;;19.88;;
64857;SDS011;51335;51.148;6.950;2023-04-07T02:53:21;31.25;;;19.77;;
64857;SDS011;51335;51.148;6.950;2023-04-07T02:53:51;31.25;;;19.80;;
64857;SDS011;51335;51.148;6.950;2023-04-07T02:54:21;30.08;;;19.73;;
64857;SDS011;51335;51.148;6.950;2023-04-07T02:54:52;29.77;;;19.50;;
64857;SDS011;51335;51.148;6.950;2023-04-07T02:55:22;31.88;;;19.98;;
64857;SDS011;51335;51.148;6.950;2023-04-07T02:55:52;27.73;;;18.75;;
64857;SDS011;51335;51.148;6.950;2023-04-07T02:56:23;28.05;;;19.50;;
64857;SDS011;51335;51.148;6.950;2023-04-07T02:56:53;28.90;;;18.98;;
64857;SDS011;51335;51.148;6.950;2023-04-07T02:57:23;32.53;;;20.23;;
64857;SDS011;51335;51.148;6.950;2023-04-07T02:57:54;32.58;;;20.40;;
64857;SDS011;51335;51.148;6.950;2023-04-07T02:58:24;30.73;;;20.52;;
64857;SDS011;51335;51.148;6.950;2023-04-07T02:58:54;32.03;;;21.88;;
64857;SDS011;51335;51.148;6.950;2023-04-07T02:59:24;33.83;;;21.15;;
64857;SDS011;51335;51.148;6.950;2023-04-07T02:59:55;36.17;;;21.88;;
64857;SDS011;51335;51.148;6.950;2023-04-07T03:00:25;37.42;;;22.48;;
64857;SDS011;51335;51.148;6.950;2023-04-07T03:00:55;33.88;;;21.50;;
64857;SDS011;51335;51.148;6.950;2023-04-07T03:01:25;37.35;;;23.20;;
64857;SDS011;51335;51.148;6.950;2023-04-07T03:01:56;36.47;;;22.15;;
64857;SDS011;51335;51.148;6.950;2023-04-07T03:02:26;37.50;;;23.10;;
64857;SDS011;51335;51.148;6.950;2023-04-07T03:02:56;38.70;;;23.85;;
64857;SDS011;51335;51.148;6.950;2023-04-07T03:03:26;42.42;;;24.17;;
64857;SDS011;51335;51.148;6.950;2023-04-07T03:03:57;43.53;;;24.88;;
64857;SDS011;51335;51.148;6.950;2023-04-07T03:04:27;45.70;;;25.65;;
64857;SDS011;51335;51.148;6.950;2023-04-07T03:04:57;49.63;;;25.30;;
64857;SDS011;51335;51.148;6.950;2023-04-07T03:05:27;45.22;;;25.70;;
64857;SDS011;51335;51.148;6.950;2023-04-07T03:05:58;49.15;;;26.52;;
64857;SDS011;51335;51.148;6.950;2023-04-07T03:06:28;51.08;;;26.92;;
64857;SDS011;51335;51.148;6.950;2023-04-07T03:06:58;49.42;;;27.08;;
64857;SDS011;51335;51.148;6.950;2023-04-07T03:07:28;46.38;;;25.58;;
64857;SDS011;51335;51.148;6.950;2023-04-07T03:07:59;46.42;;;26.35;;
64857;SDS011;51335;51.148;6.950;2023-04-07T03:08:29;49.95;;;26.30;;
64857;SDS011;51335;51.148;6.950;2023-04-07T03:08:59;45.63;;;25.42;;
64857;SDS011;51335;51.148;6.950;2023-04-07T03:09:30;49.45;;;26.20;;
64857;SDS011;51335;51.148;6.950;2023-04-07T03:10:00;50.35;;;26.92;;